PRIVATE WETTERSTATION BILLIGHEIM-ALLFELD                       ZURCK
Wetterdaten: Montag, 14.03.2022
Datum Zeit Temp. A. Temp. A. min Temp. A. max Feuchte A. Luftdruck Regen Wind Richtung Richtung Sonnenschein ET Solar Taupunkt Windchill Windben Empfang
14.03.2022 00:00 5,5 C 5,5 C 5,6 C 59 % 1016,5 hPa 0,0 l/m 0,0 km/h (0 Bft) N 0 0 min 0,025 mm 0 W/m -1,9 C 5,5 C 0,0 km/h (0 Bft) 100 %
14.03.2022 00:10 5,3 C 5,3 C 5,5 C 58 % 1016,6 hPa 0,0 l/m 0,0 km/h (0 Bft) N 0 0 min 0,000 mm 0 W/m -2,3 C 5,3 C 0,0 km/h (0 Bft) 100 %
14.03.2022 00:20 5,3 C 5,3 C 5,3 C 60 % 1016,6 hPa 0,0 l/m 0,0 km/h (0 Bft) N 0 0 min 0,000 mm 0 W/m -1,8 C 5,3 C 0,0 km/h (0 Bft) 100 %
14.03.2022 00:30 4,9 C 4,9 C 5,2 C 60 % 1016,6 hPa 0,0 l/m 0,0 km/h (0 Bft) N 0 0 min 0,000 mm 0 W/m -2,2 C 4,9 C 0,0 km/h (0 Bft) 100 %
14.03.2022 00:40 4,8 C 4,8 C 4,9 C 61 % 1016,7 hPa 0,0 l/m 0,0 km/h (0 Bft) N 0 0 min 0,000 mm 0 W/m -2,1 C 4,8 C 0,0 km/h (0 Bft) 100 %
14.03.2022 00:50 4,6 C 4,6 C 4,8 C 60 % 1016,9 hPa 0,0 l/m 0,0 km/h (0 Bft) N 0 0 min 0,000 mm 0 W/m -2,5 C 4,6 C 0,0 km/h (0 Bft) 100 %
14.03.2022 01:00 4,5 C 4,5 C 4,6 C 60 % 1017,0 hPa 0,0 l/m 0,0 km/h (0 Bft) N 0 0 min 0,025 mm 0 W/m -2,6 C 4,5 C 0,0 km/h (0 Bft) 100 %
14.03.2022 01:10 4,2 C 4,2 C 4,5 C 61 % 1017,2 hPa 0,0 l/m 0,0 km/h (0 Bft) N 0 0 min 0,000 mm 0 W/m -2,6 C 4,2 C 0,0 km/h (0 Bft) 100 %
14.03.2022 01:20 3,9 C 3,9 C 4,2 C 63 % 1017,4 hPa 0,0 l/m 0,0 km/h (0 Bft) NO 45 0 min 0,000 mm 0 W/m -2,5 C 3,9 C 1,6 km/h (1 Bft) 100 %
14.03.2022 01:30 3,7 C 3,7 C 3,9 C 63 % 1017,6 hPa 0,0 l/m 0,0 km/h (0 Bft) N 0 0 min 0,000 mm 0 W/m -2,7 C 3,7 C 0,0 km/h (0 Bft) 99 %
14.03.2022 01:40 3,6 C 3,6 C 3,7 C 63 % 1017,7 hPa 0,0 l/m 0,0 km/h (0 Bft) N 0 0 min 0,000 mm 0 W/m -2,8 C 3,6 C 0,0 km/h (0 Bft) 100 %
14.03.2022 01:50 3,4 C 3,4 C 3,6 C 64 % 1017,9 hPa 0,0 l/m 0,0 km/h (0 Bft) N 0 0 min 0,000 mm 0 W/m -2,7 C 3,4 C 0,0 km/h (0 Bft) 100 %
14.03.2022 02:00 3,4 C 3,4 C 3,4 C 64 % 1018,2 hPa 0,0 l/m 0,0 km/h (0 Bft) N 0 0 min 0,025 mm 0 W/m -2,7 C 3,4 C 0,0 km/h (0 Bft) 100 %
14.03.2022 02:10 3,3 C 3,3 C 3,4 C 63 % 1018,3 hPa 0,0 l/m 0,0 km/h (0 Bft) N 0 0 min 0,000 mm 0 W/m -3,1 C 3,3 C 0,0 km/h (0 Bft) 100 %
14.03.2022 02:20 3,3 C 3,3 C 3,3 C 63 % 1018,6 hPa 0,0 l/m 0,0 km/h (0 Bft) N 0 0 min 0,000 mm 0 W/m -3,1 C 3,3 C 0,0 km/h (0 Bft) 100 %
14.03.2022 02:30 3,6 C 3,3 C 3,6 C 63 % 1018,9 hPa 0,0 l/m 0,0 km/h (0 Bft) N 0 0 min 0,000 mm 0 W/m -2,8 C 3,6 C 0,0 km/h (0 Bft) 91 %
14.03.2022 02:40 3,4 C 3,4 C 3,7 C 68 % 1019,3 hPa 0,0 l/m 1,6 km/h (1 Bft) N 360 0 min 0,000 mm 0 W/m -1,9 C 3,4 C 8,0 km/h (2 Bft) 100 %
14.03.2022 02:50 3,6 C 3,3 C 3,6 C 64 % 1019,6 hPa 0,0 l/m 0,0 km/h (0 Bft) N 0 0 min 0,000 mm 0 W/m -2,6 C 3,6 C 0,0 km/h (0 Bft) 100 %
14.03.2022 03:00 3,9 C 3,6 C 3,9 C 62 % 1019,8 hPa 0,0 l/m 0,0 km/h (0 Bft) N 0 0 min 0,025 mm 0 W/m -2,7 C 3,9 C 0,0 km/h (0 Bft) 100 %
14.03.2022 03:10 4,4 C 3,9 C 4,4 C 61 % 1020,0 hPa 0,0 l/m 1,6 km/h (1 Bft) SW 225 0 min 0,000 mm 0 W/m -2,4 C 4,4 C 9,7 km/h (2 Bft) 100 %
14.03.2022 03:20 5,6 C 4,4 C 5,6 C 65 % 1020,3 hPa 0,0 l/m 4,8 km/h (1 Bft) W-SW 247 0 min 0,000 mm 0 W/m -0,4 C 5,6 C 14,5 km/h (3 Bft) 100 %
14.03.2022 03:30 6,4 C 5,6 C 6,4 C 72 % 1020,5 hPa 0,0 l/m 3,2 km/h (1 Bft) W-SW 247 0 min 0,000 mm 0 W/m 1,7 C 6,4 C 24,1 km/h (4 Bft) 100 %
14.03.2022 03:40 7,3 C 6,4 C 7,3 C 77 % 1020,6 hPa 0,0 l/m 8,0 km/h (2 Bft) W 270 0 min 0,000 mm 0 W/m 3,5 C 6,0 C 22,5 km/h (4 Bft) 100 %
14.03.2022 03:50 7,7 C 7,3 C 7,7 C 79 % 1020,9 hPa 0,0 l/m 9,7 km/h (2 Bft) W 270 0 min 0,000 mm 0 W/m 4,3 C 5,2 C 27,4 km/h (4 Bft) 100 %
14.03.2022 04:00 7,9 C 7,7 C 7,9 C 81 % 1021,1 hPa 0,0 l/m 11,3 km/h (2 Bft) W 270 0 min 0,025 mm 0 W/m 4,8 C 4,5 C 25,7 km/h (4 Bft) 100 %
14.03.2022 04:10 7,9 C 7,8 C 7,9 C 83 % 1021,1 hPa 0,0 l/m 8,0 km/h (2 Bft) W 270 0 min 0,000 mm 0 W/m 5,2 C 6,6 C 24,1 km/h (4 Bft) 100 %
14.03.2022 04:20 7,8 C 7,8 C 7,9 C 84 % 1021,3 hPa 0,0 l/m 8,0 km/h (2 Bft) W 270 0 min 0,000 mm 0 W/m 5,3 C 6,5 C 24,1 km/h (4 Bft) 100 %
14.03.2022 04:30 7,7 C 7,7 C 7,8 C 85 % 1021,5 hPa 0,0 l/m 9,7 km/h (2 Bft) W 270 0 min 0,000 mm 0 W/m 5,3 C 5,2 C 24,1 km/h (4 Bft) 95 %
14.03.2022 04:40 7,6 C 7,6 C 7,6 C 86 % 1021,8 hPa 0,0 l/m 6,4 km/h (2 Bft) W-SW 247 0 min 0,000 mm 0 W/m 5,4 C 7,6 C 20,9 km/h (4 Bft) 93 %
14.03.2022 04:50 7,4 C 7,4 C 7,6 C 87 % 1022,2 hPa 0,1 l/m 9,7 km/h (2 Bft) W-SW 247 0 min 0,000 mm 0 W/m 5,4 C 4,9 C 24,1 km/h (4 Bft) 100 %
14.03.2022 05:00 7,2 C 7,2 C 7,4 C 88 % 1022,4 hPa 0,2 l/m 6,4 km/h (2 Bft) W-SW 247 0 min 0,025 mm 0 W/m 5,3 C 7,2 C 19,3 km/h (3 Bft) 100 %
14.03.2022 05:10 7,1 C 7,1 C 7,2 C 88 % 1022,6 hPa 0,2 l/m 4,8 km/h (1 Bft) SW 225 0 min 0,000 mm 0 W/m 5,2 C 7,1 C 14,5 km/h (3 Bft) 100 %
14.03.2022 05:20 6,9 C 6,9 C 7,1 C 89 % 1022,8 hPa 0,4 l/m 6,4 km/h (2 Bft) SW 225 0 min 0,000 mm 0 W/m 5,2 C 6,9 C 19,3 km/h (3 Bft) 100 %
14.03.2022 05:30 6,8 C 6,8 C 6,9 C 89 % 1022,8 hPa 0,4 l/m 6,4 km/h (2 Bft) W-SW 247 0 min 0,000 mm 0 W/m 5,1 C 6,8 C 20,9 km/h (4 Bft) 100 %
14.03.2022 05:40 6,7 C 6,7 C 6,8 C 90 % 1022,9 hPa 0,2 l/m 4,8 km/h (1 Bft) W-SW 247 0 min 0,000 mm 0 W/m 5,2 C 6,7 C 16,1 km/h (3 Bft) 100 %
14.03.2022 05:50 6,7 C 6,6 C 6,7 C 90 % 1023,1 hPa 0,2 l/m 3,2 km/h (1 Bft) W-SW 247 0 min 0,000 mm 0 W/m 5,2 C 6,7 C 16,1 km/h (3 Bft) 100 %
14.03.2022 06:00 6,6 C 6,6 C 6,7 C 90 % 1023,2 hPa 0,1 l/m 6,4 km/h (2 Bft) SW 225 0 min 0,000 mm 0 W/m 5,1 C 6,6 C 16,1 km/h (3 Bft) 100 %
14.03.2022 06:10 6,4 C 6,4 C 6,6 C 91 % 1023,4 hPa 0,1 l/m 4,8 km/h (1 Bft) SW 225 0 min 0,000 mm 0 W/m 5,0 C 6,4 C 14,5 km/h (3 Bft) 100 %
14.03.2022 06:20 6,4 C 6,4 C 6,4 C 91 % 1023,5 hPa 0,4 l/m 4,8 km/h (1 Bft) SW 225 0 min 0,000 mm 0 W/m 5,0 C 6,4 C 11,3 km/h (2 Bft) 100 %
14.03.2022 06:30 6,3 C 6,3 C 6,4 C 91 % 1023,7 hPa 0,2 l/m 6,4 km/h (2 Bft) SW 225 0 min 0,000 mm 0 W/m 4,9 C 6,3 C 17,7 km/h (3 Bft) 100 %
14.03.2022 06:40 6,3 C 6,3 C 6,3 C 91 % 1023,8 hPa 0,2 l/m 9,7 km/h (2 Bft) S-SW 202 0 min 0,000 mm 0 W/m 4,9 C 3,7 C 20,9 km/h (4 Bft) 100 %
14.03.2022 06:50 6,3 C 6,3 C 6,3 C 91 % 1023,8 hPa 0,1 l/m 8,0 km/h (2 Bft) SW 225 0 min 0,000 mm 0 W/m 4,9 C 5,0 C 22,5 km/h (4 Bft) 100 %
14.03.2022 07:00 6,3 C 6,3 C 6,3 C 91 % 1024,0 hPa 0,0 l/m 4,8 km/h (1 Bft) W-SW 247 0 min 0,000 mm 5 W/m 4,9 C 6,3 C 17,7 km/h (3 Bft) 90 %
14.03.2022 07:10 6,3 C 6,3 C 6,4 C 91 % 1024,1 hPa 0,0 l/m 4,8 km/h (1 Bft) W-SW 247 0 min 0,000 mm 7 W/m 4,9 C 6,3 C 24,1 km/h (4 Bft) 100 %
14.03.2022 07:20 6,3 C 6,3 C 6,4 C 91 % 1024,3 hPa 0,0 l/m 4,8 km/h (1 Bft) SW 225 0 min 0,000 mm 14 W/m 4,9 C 6,3 C 19,3 km/h (3 Bft) 100 %
14.03.2022 07:30 6,3 C 6,3 C 6,3 C 91 % 1024,6 hPa 0,0 l/m 4,8 km/h (1 Bft) W-SW 247 0 min 0,000 mm 12 W/m 4,9 C 6,3 C 16,1 km/h (3 Bft) 100 %
14.03.2022 07:40 6,3 C 6,3 C 6,3 C 91 % 1024,8 hPa 0,0 l/m 3,2 km/h (1 Bft) W-SW 247 0 min 0,000 mm 18 W/m 4,9 C 6,3 C 11,3 km/h (2 Bft) 100 %
14.03.2022 07:50 6,3 C 6,3 C 6,3 C 91 % 1024,9 hPa 0,0 l/m 3,2 km/h (1 Bft) SW 225 0 min 0,000 mm 21 W/m 4,9 C 6,3 C 14,5 km/h (3 Bft) 100 %
14.03.2022 08:00 6,3 C 6,3 C 6,3 C 91 % 1025,0 hPa 0,0 l/m 6,4 km/h (2 Bft) SW 225 0 min 0,000 mm 42 W/m 4,9 C 6,3 C 19,3 km/h (3 Bft) 100 %
14.03.2022 08:10 6,3 C 6,3 C 6,4 C 91 % 1025,0 hPa 0,0 l/m 6,4 km/h (2 Bft) SW 225 0 min 0,000 mm 70 W/m 4,9 C 6,3 C 19,3 km/h (3 Bft) 100 %
14.03.2022 08:20 6,4 C 6,3 C 6,4 C 91 % 1025,1 hPa 0,0 l/m 3,2 km/h (1 Bft) SW 225 0 min 0,000 mm 83 W/m 5,0 C 6,4 C 16,1 km/h (3 Bft) 100 %
14.03.2022 08:30 6,4 C 6,4 C 6,4 C 91 % 1025,3 hPa 0,0 l/m 6,4 km/h (2 Bft) W-SW 247 0 min 0,000 mm 95 W/m 5,0 C 6,4 C 16,1 km/h (3 Bft) 100 %
14.03.2022 08:40 6,6 C 6,4 C 6,6 C 91 % 1025,5 hPa 0,0 l/m 4,8 km/h (1 Bft) SW 225 0 min 0,000 mm 142 W/m 5,2 C 6,6 C 20,9 km/h (4 Bft) 100 %
14.03.2022 08:50 6,7 C 6,6 C 6,7 C 90 % 1025,7 hPa 0,0 l/m 6,4 km/h (2 Bft) W-SW 247 10 min 0,000 mm 160 W/m 5,2 C 6,7 C 20,9 km/h (4 Bft) 100 %
14.03.2022 09:00 6,8 C 6,7 C 6,8 C 90 % 1025,8 hPa 0,0 l/m 6,4 km/h (2 Bft) SW 225 10 min 0,051 mm 153 W/m 5,3 C 6,8 C 20,9 km/h (4 Bft) 100 %
14.03.2022 09:10 6,9 C 6,8 C 6,9 C 89 % 1026,0 hPa 0,0 l/m 9,7 km/h (2 Bft) SW 225 0 min 0,000 mm 130 W/m 5,2 C 4,4 C 20,9 km/h (4 Bft) 100 %
14.03.2022 09:20 7,0 C 6,9 C 7,0 C 89 % 1026,2 hPa 0,0 l/m 3,2 km/h (1 Bft) W 270 10 min 0,000 mm 153 W/m 5,3 C 7,0 C 20,9 km/h (4 Bft) 100 %
14.03.2022 09:30 7,0 C 7,0 C 7,0 C 89 % 1026,4 hPa 0,0 l/m 9,7 km/h (2 Bft) SW 225 0 min 0,000 mm 109 W/m 5,3 C 4,5 C 22,5 km/h (4 Bft) 100 %
14.03.2022 09:40 6,9 C 6,9 C 7,1 C 88 % 1026,5 hPa 0,0 l/m 9,7 km/h (2 Bft) SW 225 0 min 0,000 mm 51 W/m 5,1 C 4,4 C 30,6 km/h (5 Bft) 100 %
14.03.2022 09:50 6,9 C 6,9 C 6,9 C 88 % 1026,6 hPa 0,0 l/m 8,0 km/h (2 Bft) SW 225 0 min 0,000 mm 109 W/m 5,1 C 5,6 C 22,5 km/h (4 Bft) 100 %
14.03.2022 10:00 7,0 C 6,9 C 7,0 C 87 % 1026,8 hPa 0,0 l/m 9,7 km/h (2 Bft) SW 225 10 min 0,051 mm 239 W/m 5,0 C 4,5 C 25,7 km/h (4 Bft) 100 %
14.03.2022 10:10 7,3 C 7,0 C 7,3 C 87 % 1026,8 hPa 0,0 l/m 11,3 km/h (2 Bft) SW 225 10 min 0,000 mm 306 W/m 5,3 C 3,8 C 24,1 km/h (4 Bft) 100 %
14.03.2022 10:20 7,7 C 7,3 C 7,7 C 86 % 1026,8 hPa 0,0 l/m 6,4 km/h (2 Bft) SW 225 10 min 0,000 mm 555 W/m 5,5 C 7,7 C 22,5 km/h (4 Bft) 100 %
14.03.2022 10:30 8,2 C 7,8 C 8,2 C 84 % 1026,8 hPa 0,0 l/m 12,9 km/h (3 Bft) SW 225 10 min 0,000 mm 751 W/m 5,7 C 4,0 C 30,6 km/h (5 Bft) 100 %
14.03.2022 10:40 9,1 C 8,2 C 9,1 C 85 % 1026,9 hPa 0,0 l/m 9,7 km/h (2 Bft) W-SW 247 10 min 0,000 mm 756 W/m 6,7 C 6,8 C 22,5 km/h (4 Bft) 100 %
14.03.2022 10:50 9,1 C 9,1 C 9,2 C 79 % 1027,0 hPa 0,0 l/m 8,0 km/h (2 Bft) W-SW 247 10 min 0,000 mm 339 W/m 5,7 C 7,9 C 27,4 km/h (4 Bft) 100 %
14.03.2022 11:00 8,7 C 8,7 C 9,1 C 78 % 1027,1 hPa 0,0 l/m 14,5 km/h (3 Bft) W-SW 247 10 min 0,178 mm 427 W/m 5,1 C 3,8 C 30,6 km/h (5 Bft) 100 %
14.03.2022 11:10 9,2 C 8,7 C 9,2 C 77 % 1027,2 hPa 0,0 l/m 8,0 km/h (2 Bft) SW 225 10 min 0,000 mm 686 W/m 5,4 C 8,0 C 20,9 km/h (4 Bft) 100 %
14.03.2022 11:20 9,7 C 9,2 C 9,7 C 74 % 1027,2 hPa 0,0 l/m 12,9 km/h (3 Bft) S-SW 202 10 min 0,000 mm 735 W/m 5,3 C 5,7 C 27,4 km/h (4 Bft) 100 %
14.03.2022 11:30 10,4 C 9,7 C 10,4 C 73 % 1027,2 hPa 0,0 l/m 9,7 km/h (2 Bft) SW 225 10 min 0,000 mm 846 W/m 5,8 C 8,2 C 33,8 km/h (5 Bft) 100 %
14.03.2022 11:40 10,8 C 10,4 C 10,8 C 72 % 1027,3 hPa 0,0 l/m 9,7 km/h (2 Bft) S-SW 202 10 min 0,000 mm 789 W/m 6,0 C 8,6 C 24,1 km/h (4 Bft) 100 %
14.03.2022 11:50 11,1 C 10,8 C 11,1 C 68 % 1027,5 hPa 0,0 l/m 9,7 km/h (2 Bft) W 270 10 min 0,000 mm 817 W/m 5,4 C 9,0 C 25,7 km/h (4 Bft) 99 %
14.03.2022 12:00 11,1 C 11,1 C 11,2 C 67 % 1027,6 hPa 0,0 l/m 9,7 km/h (2 Bft) W-SW 247 10 min 0,330 mm 823 W/m 5,2 C 9,0 C 22,5 km/h (4 Bft) 100 %
14.03.2022 12:20 10,1 C 10,1 C 11,2 C 69 % 1027,7 hPa 0,0 l/m 7,0 km/h (2 Bft) S-SW 207 20 min 0,000 mm 232 W/m 4,7 C 9,7 C 20,9 km/h (4 Bft) 100 %
14.03.2022 12:30 10,0 C 9,9 C 10,1 C 70 % 1027,6 hPa 0,0 l/m 5,3 km/h (1 Bft) SW 214 10 min 0,000 mm 287 W/m 4,8 C 10,0 C 19,3 km/h (3 Bft) 100 %
14.03.2022 12:40 10,2 C 10,0 C 10,2 C 68 % 1027,6 hPa 0,0 l/m 8,3 km/h (2 Bft) W-SW 248 10 min 0,000 mm 399 W/m 4,6 C 8,9 C 22,5 km/h (4 Bft) 100 %
14.03.2022 12:50 10,3 C 10,2 C 10,3 C 68 % 1027,6 hPa 0,0 l/m 5,8 km/h (2 Bft) W-NW 282 10 min 0,000 mm 188 W/m 4,7 C 10,3 C 22,5 km/h (4 Bft) 100 %
14.03.2022 13:00 10,1 C 10,1 C 10,3 C 68 % 1027,6 hPa 0,0 l/m 8,2 km/h (2 Bft) W 263 10 min 0,104 mm 216 W/m 4,5 C 8,8 C 22,5 km/h (4 Bft) 100 %
14.03.2022 13:10 10,1 C 10,0 C 10,1 C 70 % 1027,4 hPa 0,0 l/m 4,6 km/h (1 Bft) SW 225 10 min 0,000 mm 234 W/m 4,9 C 10,1 C 16,1 km/h (3 Bft) 100 %
14.03.2022 13:20 10,4 C 10,1 C 10,4 C 68 % 1027,3 hPa 0,0 l/m 6,2 km/h (2 Bft) W-NW 298 10 min 0,000 mm 346 W/m 4,8 C 10,4 C 17,7 km/h (3 Bft) 100 %
14.03.2022 13:30 11,1 C 10,4 C 11,1 C 66 % 1027,1 hPa 0,0 l/m 5,6 km/h (1 Bft) NW 304 10 min 0,000 mm 432 W/m 5,0 C 11,1 C 17,7 km/h (3 Bft) 100 %
14.03.2022 13:40 11,3 C 11,1 C 11,3 C 64 % 1027,2 hPa 0,0 l/m 5,2 km/h (1 Bft) W-NW 284 10 min 0,000 mm 257 W/m 4,7 C 11,3 C 22,5 km/h (4 Bft) 100 %
14.03.2022 13:50 11,2 C 11,2 C 11,3 C 65 % 1027,3 hPa 0,0 l/m 5,9 km/h (2 Bft) W 260 10 min 0,000 mm 369 W/m 4,9 C 11,2 C 19,3 km/h (3 Bft) 100 %
14.03.2022 14:00 11,3 C 11,2 C 11,4 C 62 % 1027,5 hPa 0,0 l/m 10,2 km/h (2 Bft) W 259 10 min 0,203 mm 230 W/m 4,3 C 8,9 C 29,0 km/h (5 Bft) 100 %
14.03.2022 14:10 11,0 C 11,0 C 11,3 C 62 % 1027,6 hPa 0,0 l/m 4,8 km/h (1 Bft) W 271 0 min 0,000 mm 141 W/m 4,0 C 11,0 C 16,1 km/h (3 Bft) 100 %
14.03.2022 14:20 10,8 C 10,8 C 11,0 C 63 % 1027,7 hPa 0,0 l/m 5,1 km/h (1 Bft) W 261 10 min 0,000 mm 207 W/m 4,0 C 10,8 C 16,1 km/h (3 Bft) 100 %
14.03.2022 14:30 10,7 C 10,7 C 10,8 C 63 % 1027,7 hPa 0,0 l/m 6,8 km/h (2 Bft) NW 313 10 min 0,000 mm 272 W/m 3,9 C 10,4 C 16,1 km/h (3 Bft) 100 %
14.03.2022 14:40 11,2 C 10,7 C 11,2 C 63 % 1027,7 hPa 0,0 l/m 4,9 km/h (1 Bft) W-NW 285 10 min 0,000 mm 292 W/m 4,4 C 11,2 C 14,5 km/h (3 Bft) 100 %
14.03.2022 14:50 11,3 C 11,2 C 11,4 C 62 % 1027,7 hPa 0,0 l/m 3,6 km/h (1 Bft) W-SW 248 10 min 0,000 mm 258 W/m 4,3 C 11,3 C 14,5 km/h (3 Bft) 99 %
14.03.2022 15:00 11,3 C 11,3 C 11,3 C 64 % 1027,5 hPa 0,0 l/m 6,0 km/h (2 Bft) S-SW 209 10 min 0,127 mm 265 W/m 4,7 C 11,3 C 16,1 km/h (3 Bft) 100 %
14.03.2022 15:10 11,9 C 11,3 C 11,9 C 63 % 1027,6 hPa 0,0 l/m 3,8 km/h (1 Bft) SW 236 10 min 0,000 mm 501 W/m 5,1 C 11,9 C 11,3 km/h (2 Bft) 100 %
14.03.2022 15:20 12,4 C 11,9 C 12,4 C 59 % 1027,5 hPa 0,0 l/m 6,3 km/h (2 Bft) S-SW 200 10 min 0,000 mm 223 W/m 4,6 C 12,4 C 19,3 km/h (3 Bft) 100 %
14.03.2022 15:30 12,6 C 12,2 C 12,6 C 59 % 1027,4 hPa 0,0 l/m 3,6 km/h (1 Bft) W 261 10 min 0,000 mm 496 W/m 4,8 C 12,6 C 19,3 km/h (3 Bft) 99 %
14.03.2022 15:40 12,9 C 12,6 C 12,9 C 57 % 1027,3 hPa 0,0 l/m 6,5 km/h (2 Bft) W 261 10 min 0,000 mm 462 W/m 4,6 C 12,9 C 19,3 km/h (3 Bft) 100 %
14.03.2022 15:50 13,2 C 12,9 C 13,2 C 57 % 1027,3 hPa 0,0 l/m 5,1 km/h (1 Bft) SW 225 10 min 0,000 mm 411 W/m 4,9 C 13,2 C 19,3 km/h (3 Bft) 100 %
14.03.2022 16:00 13,2 C 13,1 C 13,2 C 57 % 1027,2 hPa 0,0 l/m 6,1 km/h (2 Bft) W-NW 295 10 min 0,228 mm 403 W/m 4,9 C 13,2 C 17,7 km/h (3 Bft) 100 %
14.03.2022 16:10 13,4 C 13,2 C 13,4 C 55 % 1027,3 hPa 0,0 l/m 4,1 km/h (1 Bft) W 277 0 min 0,000 mm 144 W/m 4,5 C 13,4 C 16,1 km/h (3 Bft) 100 %
14.03.2022 16:20 13,2 C 13,2 C 13,5 C 56 % 1027,4 hPa 0,0 l/m 3,0 km/h (1 Bft) W-SW 246 10 min 0,000 mm 348 W/m 4,6 C 13,2 C 16,1 km/h (3 Bft) 100 %
14.03.2022 16:30 13,0 C 13,0 C 13,2 C 55 % 1027,7 hPa 0,0 l/m 4,9 km/h (1 Bft) W-NW 284 10 min 0,000 mm 295 W/m 4,2 C 13,0 C 20,9 km/h (4 Bft) 100 %
14.03.2022 16:40 13,2 C 13,0 C 13,2 C 55 % 1027,7 hPa 0,0 l/m 3,8 km/h (1 Bft) NW 317 10 min 0,000 mm 250 W/m 4,4 C 13,2 C 9,7 km/h (2 Bft) 100 %
14.03.2022 16:50 13,1 C 13,1 C 13,2 C 55 % 1027,8 hPa 0,0 l/m 5,0 km/h (1 Bft) NW 313 10 min 0,000 mm 190 W/m 4,3 C 13,1 C 14,5 km/h (3 Bft) 100 %
14.03.2022 17:00 12,7 C 12,7 C 13,1 C 57 % 1027,9 hPa 0,0 l/m 2,4 km/h (1 Bft) W 271 0 min 0,153 mm 67 W/m 4,4 C 12,7 C 6,4 km/h (2 Bft) 100 %
14.03.2022 17:10 12,3 C 12,3 C 12,7 C 60 % 1028,0 hPa 0,0 l/m 2,0 km/h (1 Bft) NW 311 0 min 0,000 mm 58 W/m 4,8 C 12,3 C 8,0 km/h (2 Bft) 99 %
14.03.2022 17:20 11,9 C 11,9 C 12,3 C 59 % 1027,9 hPa 0,0 l/m 1,7 km/h (1 Bft) W-NW 295 0 min 0,000 mm 51 W/m 4,1 C 11,9 C 8,0 km/h (2 Bft) 100 %
14.03.2022 17:30 11,7 C 11,7 C 11,9 C 60 % 1027,9 hPa 0,0 l/m 1,1 km/h (1 Bft) W-NW 303 0 min 0,000 mm 35 W/m 4,2 C 11,7 C 4,8 km/h (1 Bft) 100 %
14.03.2022 17:40 11,5 C 11,5 C 11,7 C 60 % 1028,0 hPa 0,0 l/m 0,1 km/h (0 Bft) W-NW 302 0 min 0,000 mm 30 W/m 4,0 C 11,5 C 3,2 km/h (1 Bft) 100 %
14.03.2022 17:50 11,2 C 11,2 C 11,5 C 61 % 1028,0 hPa 0,0 l/m 0,0 km/h (0 Bft) W-NW 302 0 min 0,000 mm 32 W/m 4,0 C 11,2 C 0,0 km/h (0 Bft) 100 %
14.03.2022 18:00 10,9 C 10,9 C 11,2 C 62 % 1028,1 hPa 0,0 l/m 0,0 km/h (0 Bft) W-NW 302 0 min 0,000 mm 26 W/m 3,9 C 10,9 C 0,0 km/h (0 Bft) 100 %
14.03.2022 18:10 10,6 C 10,6 C 10,9 C 63 % 1028,1 hPa 0,0 l/m 0,0 km/h (0 Bft) W-NW 302 0 min 0,025 mm 16 W/m 3,9 C 10,6 C 0,0 km/h (0 Bft) 100 %
14.03.2022 18:20 10,2 C 10,2 C 10,6 C 64 % 1028,2 hPa 0,0 l/m 0,0 km/h (0 Bft) W-NW 302 0 min 0,000 mm 9 W/m 3,7 C 10,2 C 0,0 km/h (0 Bft) 100 %
14.03.2022 18:30 9,9 C 9,9 C 10,2 C 64 % 1028,4 hPa 0,0 l/m 0,0 km/h (0 Bft) W-NW 302 0 min 0,000 mm 0 W/m 3,4 C 9,9 C 0,0 km/h (0 Bft) 91 %
14.03.2022 18:40 9,6 C 9,6 C 9,9 C 66 % 1028,4 hPa 0,0 l/m 0,0 km/h (0 Bft) W-NW 302 0 min 0,000 mm 0 W/m 3,6 C 9,6 C 0,0 km/h (0 Bft) 100 %
14.03.2022 18:50 9,2 C 9,2 C 9,6 C 67 % 1028,6 hPa 0,0 l/m 0,0 km/h (0 Bft) W-NW 302 0 min 0,000 mm 0 W/m 3,4 C 9,2 C 0,0 km/h (0 Bft) 100 %
14.03.2022 19:00 8,8 C 8,8 C 9,2 C 67 % 1028,5 hPa 0,0 l/m 0,0 km/h (0 Bft) W-NW 302 0 min 0,000 mm 0 W/m 3,0 C 8,8 C 0,0 km/h (0 Bft) 100 %
14.03.2022 19:10 8,7 C 8,7 C 8,8 C 68 % 1028,4 hPa 0,0 l/m 0,0 km/h (0 Bft) NW 304 0 min 0,000 mm 0 W/m 3,1 C 8,7 C 0,0 km/h (0 Bft) 100 %
14.03.2022 19:20 8,2 C 8,2 C 8,7 C 70 % 1028,4 hPa 0,0 l/m 0,0 km/h (0 Bft) NW 304 0 min 0,000 mm 0 W/m 3,1 C 8,2 C 0,0 km/h (0 Bft) 100 %
14.03.2022 19:30 7,8 C 7,8 C 8,2 C 71 % 1028,7 hPa 0,0 l/m 0,0 km/h (0 Bft) NW 304 0 min 0,000 mm 0 W/m 2,9 C 7,8 C 0,0 km/h (0 Bft) 100 %
14.03.2022 19:40 7,2 C 7,2 C 7,8 C 73 % 1028,6 hPa 0,0 l/m 0,0 km/h (0 Bft) NW 304 0 min 0,000 mm 0 W/m 2,7 C 7,2 C 0,0 km/h (0 Bft) 100 %
14.03.2022 19:50 6,8 C 6,8 C 7,2 C 74 % 1028,7 hPa 0,0 l/m 0,0 km/h (0 Bft) NW 304 0 min 0,000 mm 0 W/m 2,5 C 6,8 C 0,0 km/h (0 Bft) 100 %
14.03.2022 20:00 6,4 C 6,4 C 6,8 C 76 % 1028,7 hPa 0,0 l/m 0,0 km/h (0 Bft) NW 304 0 min 0,026 mm 0 W/m 2,5 C 6,4 C 0,0 km/h (0 Bft) 100 %
14.03.2022 20:10 6,1 C 6,1 C 6,4 C 77 % 1028,8 hPa 0,0 l/m 0,0 km/h (0 Bft) NW 304 0 min 0,000 mm 0 W/m 2,4 C 6,1 C 0,0 km/h (0 Bft) 100 %
14.03.2022 20:20 5,7 C 5,7 C 6,1 C 78 % 1028,8 hPa 0,0 l/m 0,0 km/h (0 Bft) NW 305 0 min 0,000 mm 0 W/m 2,2 C 5,7 C 0,0 km/h (0 Bft) 100 %
14.03.2022 20:30 5,3 C 5,3 C 5,7 C 80 % 1028,9 hPa 0,0 l/m 0,0 km/h (0 Bft) NW 305 0 min 0,000 mm 0 W/m 2,1 C 5,3 C 0,0 km/h (0 Bft) 100 %
14.03.2022 20:40 5,1 C 5,1 C 5,3 C 81 % 1029,0 hPa 0,0 l/m 0,0 km/h (0 Bft) NW 305 0 min 0,000 mm 0 W/m 2,1 C 5,1 C 0,0 km/h (0 Bft) 100 %
14.03.2022 20:50 4,8 C 4,8 C 5,1 C 82 % 1028,9 hPa 0,0 l/m 0,0 km/h (0 Bft) NW 305 0 min 0,000 mm 0 W/m 2,0 C 4,8 C 0,0 km/h (0 Bft) 100 %
14.03.2022 21:00 4,5 C 4,5 C 4,8 C 83 % 1029,1 hPa 0,0 l/m 0,0 km/h (0 Bft) NW 305 0 min 0,000 mm 0 W/m 1,9 C 4,5 C 0,0 km/h (0 Bft) 100 %
14.03.2022 21:10 4,2 C 4,2 C 4,5 C 83 % 1029,1 hPa 0,0 l/m 0,0 km/h (0 Bft) N 0 0 min 0,000 mm 0 W/m 1,6 C 4,2 C 0,0 km/h (0 Bft) 97 %
14.03.2022 21:20 3,9 C 3,9 C 4,2 C 84 % 1029,0 hPa 0,0 l/m 0,0 km/h (0 Bft) N 0 0 min 0,000 mm 0 W/m 1,4 C 3,9 C 0,0 km/h (0 Bft) 98 %
14.03.2022 21:30 3,7 C 3,7 C 3,9 C 85 % 1029,0 hPa 0,0 l/m 0,0 km/h (0 Bft) N 0 0 min 0,000 mm 0 W/m 1,4 C 3,7 C 0,0 km/h (0 Bft) 97 %
14.03.2022 21:40 3,4 C 3,4 C 3,7 C 85 % 1029,1 hPa 0,0 l/m 0,0 km/h (0 Bft) N 0 0 min 0,000 mm 0 W/m 1,1 C 3,4 C 0,0 km/h (0 Bft) 98 %
14.03.2022 21:50 3,4 C 3,3 C 3,4 C 86 % 1029,1 hPa 0,0 l/m 0,0 km/h (0 Bft) N 0 0 min 0,000 mm 0 W/m 1,3 C 3,4 C 0,0 km/h (0 Bft) 98 %
14.03.2022 22:00 3,2 C 3,2 C 3,4 C 86 % 1029,0 hPa 0,0 l/m 0,0 km/h (0 Bft) N 0 0 min 0,000 mm 0 W/m 1,1 C 3,2 C 0,0 km/h (0 Bft) 97 %
14.03.2022 22:10 3,1 C 3,1 C 3,2 C 87 % 1028,9 hPa 0,0 l/m 0,0 km/h (0 Bft) N 0 0 min 0,000 mm 0 W/m 1,2 C 3,1 C 0,0 km/h (0 Bft) 97 %
14.03.2022 22:20 3,0 C 3,0 C 3,1 C 87 % 1029,0 hPa 0,0 l/m 0,0 km/h (0 Bft) N 0 0 min 0,000 mm 0 W/m 1,1 C 3,0 C 0,0 km/h (0 Bft) 97 %
14.03.2022 22:30 2,9 C 2,9 C 3,0 C 87 % 1029,1 hPa 0,0 l/m 0,0 km/h (0 Bft) N 0 0 min 0,000 mm 0 W/m 1,0 C 2,9 C 0,0 km/h (0 Bft) 98 %
14.03.2022 22:40 2,8 C 2,7 C 2,9 C 88 % 1029,0 hPa 0,0 l/m 0,0 km/h (0 Bft) N 0 0 min 0,000 mm 0 W/m 1,0 C 2,8 C 0,0 km/h (0 Bft) 99 %
14.03.2022 22:50 2,7 C 2,7 C 2,8 C 88 % 1029,0 hPa 0,0 l/m 0,0 km/h (0 Bft) N 0 0 min 0,000 mm 0 W/m 0,9 C 2,7 C 0,0 km/h (0 Bft) 100 %
14.03.2022 23:00 2,7 C 2,7 C 2,7 C 89 % 1028,9 hPa 0,0 l/m 0,0 km/h (0 Bft) N 0 0 min 0,000 mm 0 W/m 1,1 C 2,7 C 0,0 km/h (0 Bft) 100 %
14.03.2022 23:10 2,7 C 2,7 C 2,7 C 88 % 1028,9 hPa 0,0 l/m 0,0 km/h (0 Bft) N 0 0 min 0,000 mm 0 W/m 0,9 C 2,7 C 0,0 km/h (0 Bft) 100 %
14.03.2022 23:20 2,6 C 2,6 C 2,7 C 88 % 1028,9 hPa 0,0 l/m 0,0 km/h (0 Bft) N 0 0 min 0,000 mm 0 W/m 0,8 C 2,6 C 0,0 km/h (0 Bft) 100 %
14.03.2022 23:30 2,6 C 2,6 C 2,6 C 89 % 1029,0 hPa 0,0 l/m 0,0 km/h (0 Bft) N 0 0 min 0,000 mm 0 W/m 1,0 C 2,6 C 0,0 km/h (0 Bft) 99 %
14.03.2022 23:40 2,5 C 2,5 C 2,6 C 89 % 1029,1 hPa 0,0 l/m 0,0 km/h (0 Bft) N 0 0 min 0,000 mm 0 W/m 0,9 C 2,5 C 0,0 km/h (0 Bft) 100 %
14.03.2022 23:50 2,4 C 2,4 C 2,5 C 89 % 1029,1 hPa 0,0 l/m 0,0 km/h (0 Bft) N 0 0 min 0,000 mm 0 W/m 0,8 C 2,4 C 0,0 km/h (0 Bft) 100 %
_ Min-Zeit 23:50 23:50 23:50 16:10 00:00 - 00:00 - - - - - 02:10 23:50 00:00 07:00
Minimum _ 2,4 C 2,4 C 2,5 C 55 % 1016,5 hPa - 0,0 km/h (0 Bft) - - - - - -3,1 C 2,4 C 0,0 km/h (0 Bft) 90 %
_ Max-Zeit 16:20 16:10 16:20 06:10 21:00 05:20 11:00 - - 12:20 12:00 11:30 10:40 16:10 11:30 00:00
Maximum _ 13,5 C 13,2 C 13,5 C 91 % 1029,1 hPa 0,4 l/m 14,5 km/h
W-SW (3 Bft)
- - 20 min 0,330 mm 846 W/m 6,7 C 13,4 C 33,8 km/h
S-SW (5 Bft)
100 %
Durchschnitt _ 7,5 C 7,3 C 7,6 C 75 % 1025,4 hPa #2,8 l/m 3,9 km/h (1 Bft) SW - #7:10 h #1,626 mm 266 W/m 3,1 C 7,0 C 11,8 km/h (2 Bft) 99 %
PRIVATE WETTERSTATION BILLIGHEIM-ALLFELD - www.neckar-odenwald-wetter.de - Holger Sonntag